Time;durP1;ratioP1;P1;durP2;ratioP2;P2;SDS_P1;SDS_P2;PMS_P1;PMS_P2;Temp;Humidity;BMP_temperature;BMP_pressure;BME280_temperature;BME280_humidity;BME280_pressure;Samples;Min_cycle;Max_cycle;Signal;HPM_P1;HPM_P2
2020/12/31 20:34:30;;;;;;;11.07;6.87;;;0.20;99.90;;;;;;2085355;27;1470824;-71
2020/12/31 20:35:30;;;;;;;10.07;6.70;;;0.00;99.90;;;;;;2120760;28;20286;-71
2020/12/31 20:36:32;;;;;;;7.23;5.27;;;0.00;99.90;;;;;;2112729;28;20689;-70
2020/12/31 20:37:32;;;;;;;7.50;5.38;;;0.00;99.90;;;;;;2095735;28;20172;-72
2020/12/31 20:38:33;;;;;;;7.97;5.60;;;0.10;99.90;;;;;;2104354;28;20638;-70
2020/12/31 20:39:34;;;;;;;7.77;5.40;;;0.10;99.90;;;;;;2121595;28;20170;-71
2020/12/31 20:40:35;;;;;;;6.68;4.97;;;0.20;99.90;;;;;;2121526;28;20763;-72
2020/12/31 20:41:36;;;;;;;5.93;4.87;;;0.20;99.90;;;;;;2112188;28;20191;-74
2020/12/31 20:42:38;;;;;;;5.60;4.50;;;0.20;99.90;;;;;;2095608;28;20187;-71
2020/12/31 20:43:39;;;;;;;5.85;4.80;;;0.20;99.90;;;;;;2079450;28;20185;-70
2020/12/31 20:44:42;;;;;;;6.33;4.77;;;0.20;99.90;;;;;;2088605;28;20213;-72
2020/12/31 20:45:43;;;;;;;4.10;3.67;;;0.20;99.90;;;;;;2104619;28;20182;-71
2020/12/31 20:46:44;;;;;;;5.23;4.53;;;0.20;99.90;;;;;;2106381;28;20190;-72
2020/12/31 20:47:45;;;;;;;6.07;4.70;;;0.20;99.90;;;;;;2113031;28;20893;-72
2020/12/31 20:48:46;;;;;;;4.90;4.30;;;0.30;99.90;;;;;;2102189;28;20183;-70
2020/12/31 20:49:47;;;;;;;4.57;4.03;;;0.30;99.90;;;;;;2095876;28;20662;-71
2020/12/31 20:50:48;;;;;;;4.40;3.83;;;0.30;99.90;;;;;;2106857;28;20194;-71
2020/12/31 20:51:50;;;;;;;6.17;5.07;;;0.30;99.90;;;;;;2103963;28;20597;-71
2020/12/31 20:52:51;;;;;;;9.65;6.70;;;0.30;99.90;;;;;;2095751;28;20204;-69
2020/12/31 20:53:52;;;;;;;10.13;5.97;;;0.30;99.90;;;;;;2104153;28;20675;-70
2020/12/31 20:54:53;;;;;;;11.60;6.63;;;0.30;99.90;;;;;;2113068;28;20206;-71
2020/12/31 20:55:54;;;;;;;7.30;4.47;;;0.30;99.90;;;;;;2113140;28;20182;-72
2020/12/31 20:57:01;;;;;;;7.17;4.37;;;0.30;99.90;;;;;;2109875;28;20180;-71
2020/12/31 20:58:01;;;;;;;6.35;4.50;;;0.30;99.90;;;;;;2104572;28;20167;-72
2020/12/31 20:59:03;;;;;;;4.57;3.80;;;0.30;99.90;;;;;;2099892;28;20205;-71
2020/12/31 21:00:05;;;;;;;5.63;4.60;;;0.30;99.90;;;;;;2104008;28;20184;-71
2020/12/31 21:01:11;;;;;;;4.95;4.40;;;0.40;99.90;;;;;;2098940;28;20191;-72
2020/12/31 21:02:12;;;;;;;4.63;3.58;;;0.40;99.90;;;;;;2096376;28;20883;-68
2020/12/31 21:03:13;;;;;;;5.30;4.47;;;0.40;99.90;;;;;;2101188;28;20255;-68
2020/12/31 21:04:14;;;;;;;3.23;2.90;;;0.30;99.90;;;;;;2103798;28;20981;-68
2020/12/31 21:05:15;;;;;;;4.67;4.07;;;0.40;99.90;;;;;;2103816;28;20191;-69
2020/12/31 21:06:19;;;;;;;4.70;4.20;;;0.30;99.90;;;;;;2108340;28;20634;-68
2020/12/31 21:07:20;;;;;;;4.88;3.83;;;0.30;99.90;;;;;;2095718;28;20636;-68
2020/12/31 21:08:20;;;;;;;5.47;4.88;;;0.40;99.90;;;;;;2095281;28;20196;-68
2020/12/31 21:09:22;;;;;;;6.73;6.03;;;0.30;99.90;;;;;;2097449;28;20184;-69
2020/12/31 21:10:23;;;;;;;4.97;4.35;;;0.40;99.90;;;;;;2095368;28;20180;-71
2020/12/31 21:11:24;;;;;;;5.80;4.80;;;0.40;99.90;;;;;;2102614;28;20191;-71
2020/12/31 21:12:24;;;;;;;4.60;4.07;;;0.50;99.90;;;;;;2095324;28;20618;-69
2020/12/31 21:13:25;;;;;;;4.10;3.70;;;0.50;99.90;;;;;;2107288;28;20668;-69
2020/12/31 21:14:27;;;;;;;5.27;4.50;;;0.50;99.90;;;;;;2109754;28;20206;-69
2020/12/31 21:15:28;;;;;;;5.15;4.50;;;0.50;99.90;;;;;;2101342;28;20244;-70
2020/12/31 21:16:29;;;;;;;6.30;5.50;;;0.50;99.90;;;;;;2103570;28;20263;-71
2020/12/31 21:17:29;;;;;;;6.30;5.70;;;0.50;99.90;;;;;;2095749;28;20188;-70
2020/12/31 21:18:31;;;;;;;8.33;7.53;;;0.40;99.90;;;;;;2095279;28;20180;-71
2020/12/31 21:19:32;;;;;;;7.90;7.10;;;0.40;99.90;;;;;;2095245;28;20631;-72
2020/12/31 21:20:32;;;;;;;8.00;7.13;;;0.40;99.90;;;;;;2095457;28;20210;-71
2020/12/31 21:21:33;;;;;;;7.70;6.90;;;0.40;99.90;;;;;;2112655;28;20648;-70
2020/12/31 21:22:34;;;;;;;6.37;5.57;;;0.40;99.90;;;;;;2103463;28;20277;-75
2020/12/31 21:23:35;;;;;;;6.77;5.60;;;0.40;99.90;;;;;;2103983;28;20255;-73
2020/12/31 21:24:35;;;;;;;6.20;5.40;;;0.40;99.90;;;;;;2103605;28;20183;-70
2020/12/31 21:25:36;;;;;;;5.30;4.60;;;0.40;99.90;;;;;;2095147;28;20250;-70
2020/12/31 21:26:37;;;;;;;5.00;4.50;;;0.40;99.90;;;;;;2103941;28;20195;-72
2020/12/31 21:27:37;;;;;;;4.23;3.83;;;0.40;99.90;;;;;;2112671;28;20174;-72
2020/12/31 21:28:40;;;;;;;4.07;3.67;;;0.30;99.90;;;;;;2112848;28;20551;-70
2020/12/31 21:29:40;;;;;;;4.25;3.85;;;0.40;99.90;;;;;;2103617;28;20185;-73
2020/12/31 21:30:47;;;;;;;3.90;3.50;;;0.30;99.90;;;;;;2103774;28;20186;-70
2020/12/31 21:31:48;;;;;;;3.55;3.25;;;0.30;99.90;;;;;;2104313;28;20253;-67
2020/12/31 21:32:49;;;;;;;4.03;3.42;;;0.30;99.90;;;;;;2109601;28;20680;-65
2020/12/31 21:33:50;;;;;;;4.30;3.90;;;0.20;99.90;;;;;;2103609;28;20203;-64
2020/12/31 21:34:51;;;;;;;4.60;4.10;;;0.20;99.90;;;;;;2110018;28;20182;-66
2020/12/31 21:35:52;;;;;;;5.20;4.33;;;0.30;99.90;;;;;;2104267;28;20214;-64
2020/12/31 21:36:52;;;;;;;5.03;4.13;;;0.30;99.90;;;;;;2107272;28;20221;-65
2020/12/31 21:37:53;;;;;;;4.23;3.70;;;0.20;99.90;;;;;;2112838;28;20194;-64
2020/12/31 21:38:54;;;;;;;4.77;3.83;;;0.10;99.90;;;;;;2109674;28;20171;-65
2020/12/31 21:39:54;;;;;;;4.23;3.80;;;0.20;99.90;;;;;;2104403;28;20309;-66
2020/12/31 21:40:56;;;;;;;5.67;4.10;;;0.20;99.90;;;;;;2107277;28;20198;-64
2020/12/31 21:41:57;;;;;;;6.25;4.75;;;0.10;99.90;;;;;;2112490;28;20180;-66
2020/12/31 21:42:58;;;;;;;7.82;5.72;;;0.10;99.90;;;;;;2108857;28;20578;-66
2020/12/31 21:43:59;;;;;;;7.43;5.30;;;0.10;99.90;;;;;;2103124;28;20186;-67
2020/12/31 21:44:59;;;;;;;6.67;4.90;;;0.10;99.90;;;;;;2104107;28;20629;-64
2020/12/31 21:46:00;;;;;;;5.27;4.63;;;0.10;99.90;;;;;;2097947;28;20195;-65
2020/12/31 21:47:01;;;;;;;5.93;4.63;;;0.10;99.90;;;;;;2098550;28;20195;-65
2020/12/31 21:48:02;;;;;;;5.10;3.90;;;0.20;99.90;;;;;;2098346;28;20187;-64
2020/12/31 21:49:05;;;;;;;4.40;3.90;;;0.10;99.90;;;;;;2098041;28;20208;-66
2020/12/31 21:50:06;;;;;;;6.53;4.85;;;0.10;99.90;;;;;;2092496;28;20200;-64
2020/12/31 21:51:07;;;;;;;5.90;4.72;;;0.10;99.90;;;;;;2089624;28;20194;-67
2020/12/31 21:52:09;;;;;;;4.87;4.00;;;0.20;99.90;;;;;;2098429;28;20192;-66
2020/12/31 21:53:10;;;;;;;3.92;3.53;;;0.20;99.90;;;;;;2101322;28;20673;-64
2020/12/31 21:54:10;;;;;;;5.87;3.80;;;0.20;99.90;;;;;;2098392;28;20215;-65
2020/12/31 21:55:12;;;;;;;3.97;3.57;;;0.10;99.90;;;;;;2098652;28;20203;-66
2020/12/31 21:56:15;;;;;;;4.65;3.75;;;0.10;99.90;;;;;;2098419;28;20179;-64
2020/12/31 21:57:16;;;;;;;3.85;3.35;;;0.10;99.90;;;;;;2098709;28;20274;-64
2020/12/31 21:58:17;;;;;;;4.13;3.67;;;0.10;99.90;;;;;;2098449;28;20210;-65
2020/12/31 21:59:17;;;;;;;4.50;3.80;;;0.20;99.90;;;;;;2104928;28;20206;-66
2020/12/31 22:00:22;;;;;;;4.67;3.67;;;0.10;99.90;;;;;;2106654;28;20213;-67
2020/12/31 22:01:22;;;;;;;4.88;4.22;;;0.20;99.90;;;;;;2099673;28;20638;-66
2020/12/31 22:02:23;;;;;;;4.23;3.73;;;0.10;99.90;;;;;;2098442;28;20175;-65
2020/12/31 22:03:27;;;;;;;4.00;3.60;;;0.10;99.90;;;;;;2098471;28;20198;-65
2020/12/31 22:04:27;;;;;;;4.68;3.92;;;0.10;99.90;;;;;;2098472;28;20171;-65
2020/12/31 22:05:28;;;;;;;5.03;4.10;;;0.20;99.90;;;;;;2106351;28;20209;-65
2020/12/31 22:06:29;;;;;;;4.80;4.03;;;0.20;99.90;;;;;;2106766;28;20271;-66
2020/12/31 22:07:30;;;;;;;5.07;4.50;;;0.10;99.90;;;;;;2098697;28;20221;-66
2020/12/31 22:08:31;;;;;;;6.00;5.40;;;0.20;99.90;;;;;;2098032;28;20184;-65
2020/12/31 22:09:31;;;;;;;5.30;4.57;;;0.20;99.90;;;;;;2098318;28;20188;-65
2020/12/31 22:10:32;;;;;;;6.43;5.40;;;0.20;99.90;;;;;;2097508;28;20463;-65
2020/12/31 22:11:33;;;;;;;6.40;5.70;;;0.20;99.90;;;;;;2089367;28;20172;-65
2020/12/31 22:12:35;;;;;;;7.17;6.47;;;0.30;99.90;;;;;;2089293;28;20256;-65
2020/12/31 22:13:36;;;;;;;5.80;5.20;;;0.30;99.90;;;;;;2098123;28;20551;-65
2020/12/31 22:14:36;;;;;;;5.15;4.65;;;0.30;99.90;;;;;;2089554;28;20214;-64
2020/12/31 22:15:37;;;;;;;5.73;5.20;;;0.30;99.90;;;;;;2094342;28;20180;-66
2020/12/31 22:16:38;;;;;;;4.83;4.37;;;0.20;99.90;;;;;;2105176;28;20171;-64
2020/12/31 22:17:39;;;;;;;4.50;4.10;;;0.30;99.90;;;;;;2098435;28;20168;-64
2020/12/31 22:18:41;;;;;;;5.03;4.53;;;0.30;99.90;;;;;;2101122;28;20214;-65
2020/12/31 22:19:42;;;;;;;4.32;3.92;;;0.30;99.90;;;;;;2098250;28;20172;-63
2020/12/31 22:20:43;;;;;;;4.90;4.43;;;0.30;99.90;;;;;;2098512;28;20268;-66
2020/12/31 22:21:44;;;;;;;5.05;4.55;;;0.30;99.90;;;;;;2098183;28;20187;-67
2020/12/31 22:22:45;;;;;;;4.83;4.33;;;0.20;99.90;;;;;;2099222;28;20653;-66
2020/12/31 22:23:46;;;;;;;3.93;3.53;;;0.20;99.90;;;;;;2097036;28;20176;-66
2020/12/31 22:24:46;;;;;;;5.20;4.70;;;0.30;99.90;;;;;;2098319;28;20195;-65
2020/12/31 22:25:47;;;;;;;4.43;4.03;;;0.30;99.90;;;;;;2097246;28;20214;-66
2020/12/31 22:26:51;;;;;;;6.53;5.77;;;0.30;99.90;;;;;;2098355;28;20187;-65
2020/12/31 22:27:52;;;;;;;7.55;6.63;;;0.30;99.90;;;;;;2098196;28;20221;-65
2020/12/31 22:28:52;;;;;;;5.73;5.13;;;0.30;99.90;;;;;;2098161;28;20224;-66
2020/12/31 22:29:53;;;;;;;5.37;4.53;;;0.30;99.90;;;;;;2098525;28;20171;-66
2020/12/31 22:30:54;;;;;;;6.10;4.73;;;0.40;99.90;;;;;;2103042;28;20182;-65
2020/12/31 22:31:56;;;;;;;6.47;5.40;;;0.40;99.90;;;;;;2097892;28;20179;-65
2020/12/31 22:32:57;;;;;;;6.00;5.40;;;0.30;99.90;;;;;;2097994;28;20195;-65
2020/12/31 22:33:58;;;;;;;8.50;6.43;;;0.40;99.90;;;;;;2097750;28;20203;-65
2020/12/31 22:34:59;;;;;;;7.93;6.18;;;0.40;99.90;;;;;;2092885;28;20184;-65
2020/12/31 22:36:00;;;;;;;7.27;6.13;;;0.40;99.90;;;;;;2101350;28;20182;-64
2020/12/31 22:37:04;;;;;;;7.10;5.68;;;0.40;99.90;;;;;;2106307;28;20179;-64
2020/12/31 22:38:05;;;;;;;5.82;5.20;;;0.40;99.90;;;;;;2097208;28;20226;-63
2020/12/31 22:39:06;;;;;;;6.63;5.43;;;0.40;99.90;;;;;;2097496;28;20176;-64
2020/12/31 22:40:07;;;;;;;7.67;6.47;;;0.40;99.90;;;;;;2097914;28;20264;-66
2020/12/31 22:41:08;;;;;;;8.88;7.70;;;0.40;99.90;;;;;;2097724;28;20539;-66
2020/12/31 22:42:09;;;;;;;7.13;5.70;;;0.40;99.90;;;;;;2098033;28;20186;-64
2020/12/31 22:43:09;;;;;;;8.37;5.87;;;0.50;99.90;;;;;;2104751;28;20203;-64
2020/12/31 22:44:10;;;;;;;7.37;5.83;;;0.50;99.90;;;;;;2106229;28;20466;-65
2020/12/31 22:45:13;;;;;;;7.50;6.37;;;0.50;99.90;;;;;;2100979;28;20266;-69
2020/12/31 22:46:13;;;;;;;8.43;6.90;;;0.50;99.90;;;;;;2097642;28;20205;-67
2020/12/31 22:47:14;;;;;;;6.00;5.13;;;0.60;99.90;;;;;;2097958;28;20719;-70
2020/12/31 22:48:15;;;;;;;4.83;4.00;;;0.60;99.90;;;;;;2097987;28;20206;-68
2020/12/31 22:49:15;;;;;;;7.67;6.03;;;0.50;99.90;;;;;;2104010;28;20179;-68
2020/12/31 22:50:18;;;;;;;6.77;5.70;;;0.60;99.90;;;;;;2106379;28;20589;-70
2020/12/31 22:51:19;;;;;;;7.70;5.82;;;0.60;99.90;;;;;;2097040;28;20187;-73
2020/12/31 22:52:20;;;;;;;6.13;5.40;;;0.60;99.90;;;;;;2097281;28;20186;-71
2020/12/31 22:53:20;;;;;;;11.33;8.10;;;0.60;99.90;;;;;;2106264;28;20575;-71
2020/12/31 22:54:21;;;;;;;9.63;7.37;;;0.60;99.90;;;;;;2106372;28;20195;-72
2020/12/31 22:55:22;;;;;;;9.43;7.50;;;0.50;99.90;;;;;;2099247;28;20663;-67
2020/12/31 22:56:22;;;;;;;16.77;12.20;;;0.50;99.90;;;;;;2097851;28;20200;-69
2020/12/31 22:57:23;;;;;;;10.57;8.40;;;0.50;99.90;;;;;;2104037;28;20231;-73
2020/12/31 22:58:24;;;;;;;7.27;6.10;;;0.50;99.90;;;;;;2097373;28;20195;-71
2020/12/31 22:59:25;;;;;;;11.20;6.37;;;0.60;99.90;;;;;;2089120;28;20176;-71
2020/12/31 23:00:25;;;;;;;7.13;6.13;;;0.60;99.90;;;;;;2100978;28;20167;-72
2020/12/31 23:01:26;;;;;;;7.13;5.77;;;0.60;99.90;;;;;;2097547;28;20583;-67
2020/12/31 23:02:27;;;;;;;8.20;6.60;;;0.60;99.90;;;;;;2096996;28;20279;-71
2020/12/31 23:03:28;;;;;;;8.18;6.70;;;0.60;99.90;;;;;;2096720;28;20646;-69
2020/12/31 23:04:29;;;;;;;7.53;6.43;;;0.60;99.90;;;;;;2105560;28;20266;-70
2020/12/31 23:05:30;;;;;;;7.88;6.40;;;0.60;99.90;;;;;;2097232;28;20179;-70
2020/12/31 23:06:36;;;;;;;8.30;6.80;;;0.50;99.90;;;;;;2092933;28;20199;-68
2020/12/31 23:07:38;;;;;;;9.95;7.90;;;0.40;99.90;;;;;;2089221;28;20732;-67
2020/12/31 23:08:39;;;;;;;12.25;9.57;;;0.50;99.90;;;;;;2080518;28;20193;-70
2020/12/31 23:09:40;;;;;;;13.60;9.63;;;0.60;99.90;;;;;;2085691;28;20279;-70
2020/12/31 23:10:40;;;;;;;12.07;9.27;;;0.50;99.90;;;;;;2103724;28;20187;-69
2020/12/31 23:11:41;;;;;;;13.27;10.03;;;0.50;99.90;;;;;;2096981;28;20572;-71
2020/12/31 23:12:42;;;;;;;11.70;9.30;;;0.60;99.90;;;;;;2089737;28;20187;-72
2020/12/31 23:13:43;;;;;;;12.90;9.73;;;0.60;99.90;;;;;;2081871;28;20184;-72
2020/12/31 23:14:44;;;;;;;49.50;28.13;;;0.60;99.90;;;;;;2087147;28;20501;-73
2020/12/31 23:15:45;;;;;;;58.63;35.13;;;0.60;99.90;;;;;;2097127;28;20183;-73
2020/12/31 23:16:47;;;;;;;71.80;41.63;;;0.60;99.90;;;;;;2097294;28;20646;-71
2020/12/31 23:17:49;;;;;;;61.80;37.03;;;0.60;99.90;;;;;;2097072;28;20187;-70
2020/12/31 23:18:50;;;;;;;47.42;30.23;;;0.60;99.90;;;;;;2089183;28;20203;-70
2020/12/31 23:19:50;;;;;;;48.17;28.30;;;0.50;99.90;;;;;;2097162;28;20184;-68
2020/12/31 23:20:51;;;;;;;57.47;34.67;;;0.50;99.90;;;;;;2105825;28;20179;-70
2020/12/31 23:21:52;;;;;;;67.00;37.00;;;0.50;99.90;;;;;;2105689;28;20171;-70
2020/12/31 23:22:53;;;;;;;52.25;31.42;;;0.50;99.90;;;;;;2100740;28;20187;-73
2020/12/31 23:23:54;;;;;;;40.07;24.50;;;0.40;99.90;;;;;;2089059;28;20184;-73
2020/12/31 23:24:54;;;;;;;35.10;21.00;;;0.40;99.90;;;;;;2083961;28;20220;-68
2020/12/31 23:25:55;;;;;;;41.70;25.33;;;0.50;99.90;;;;;;2080446;28;20189;-69
2020/12/31 23:26:56;;;;;;;33.47;19.10;;;0.50;99.90;;;;;;2087610;28;20188;-66
2020/12/31 23:27:56;;;;;;;26.30;16.60;;;0.50;99.90;;;;;;2096575;28;20198;-69
2020/12/31 23:28:58;;;;;;;20.27;15.67;;;0.50;99.90;;;;;;2100849;28;20190;-69
2020/12/31 23:29:58;;;;;;;27.40;20.75;;;0.50;99.90;;;;;;2088747;28;20184;-71
2020/12/31 23:30:59;;;;;;;27.10;19.87;;;0.50;99.90;;;;;;2091722;28;20708;-71
2020/12/31 23:32:00;;;;;;;28.88;19.75;;;0.50;99.90;;;;;;2097490;28;20180;-72
2020/12/31 23:33:01;;;;;;;22.17;15.07;;;0.50;99.90;;;;;;2092696;28;20280;-69
2020/12/31 23:34:09;;;;;;;24.17;17.73;;;0.50;99.90;;;;;;2096770;28;20258;-69
2020/12/31 23:35:12;;;;;;;24.98;17.05;;;0.50;99.90;;;;;;2088812;28;20177;-73
2020/12/31 23:36:12;;;;;;;22.17;15.93;;;0.40;99.90;;;;;;2088464;28;20192;-72
2020/12/31 23:37:13;;;;;;;20.27;14.83;;;0.40;99.90;;;;;;2088848;28;20173;-69
2020/12/31 23:38:14;;;;;;;18.87;13.17;;;0.50;99.90;;;;;;2088609;28;20200;-71
2020/12/31 23:39:16;;;;;;;16.13;11.30;;;0.50;99.90;;;;;;2094667;28;20222;-71
2020/12/31 23:40:18;;;;;;;20.63;13.50;;;0.50;99.90;;;;;;2088719;28;20647;-74
2020/12/31 23:41:19;;;;;;;23.92;14.82;;;0.40;99.90;;;;;;2077694;28;20188;-69
2020/12/31 23:42:20;;;;;;;20.38;13.95;;;0.50;99.90;;;;;;2080530;28;20674;-72
2020/12/31 23:43:21;;;;;;;28.27;17.47;;;0.50;99.90;;;;;;2089130;28;20207;-70
2020/12/31 23:44:21;;;;;;;24.73;14.47;;;0.40;99.90;;;;;;2096746;28;20599;-68
2020/12/31 23:45:23;;;;;;;18.57;12.27;;;0.40;99.90;;;;;;2080599;28;20181;-71
2020/12/31 23:46:45;;;;;;;19.38;13.38;;;0.30;99.90;;;;;;2080493;28;20189;-71
2020/12/31 23:47:48;;;;;;;24.27;15.35;;;0.30;99.90;;;;;;2083223;28;20177;-74
2020/12/31 23:48:48;;;;;;;29.77;16.42;;;0.30;99.90;;;;;;2085795;28;20191;-71
2020/12/31 23:49:49;;;;;;;24.93;16.00;;;0.40;99.90;;;;;;2080313;28;20181;-71
2020/12/31 23:50:50;;;;;;;23.13;16.37;;;0.30;99.90;;;;;;2090694;28;20735;-70
2020/12/31 23:51:51;;;;;;;27.85;17.33;;;0.40;99.90;;;;;;2096921;28;20184;-68
2020/12/31 23:52:55;;;;;;;22.47;14.50;;;0.30;99.90;;;;;;2093938;28;20233;-71
2020/12/31 23:53:55;;;;;;;20.02;11.65;;;0.30;99.90;;;;;;2088489;28;20243;-71
2020/12/31 23:54:56;;;;;;;16.50;11.13;;;0.30;99.90;;;;;;2083108;28;20187;-72
2020/12/31 23:55:57;;;;;;;11.80;8.47;;;0.20;99.90;;;;;;2096755;28;20764;-71
2020/12/31 23:56:58;;;;;;;11.77;8.00;;;0.20;99.90;;;;;;2105690;28;20179;-69
2020/12/31 23:57:59;;;;;;;8.63;6.25;;;0.20;99.90;;;;;;2105786;28;20171;-69
2020/12/31 23:58:59;;;;;;;9.40;6.03;;;0.20;99.90;;;;;;2101682;28;20175;-74
